Capitol Logistics 1143


EBLG
Liège Airport
Liege, BE
LEBL
Barcelona International Airport
Barcelona, ES

Activity Log

Date Flight Route Aircraft Duration
No Flights Yet

Route Details

Aircraft Information
Primary: Boeing 737-800BCF
Backup: Not Available
Route Data
Distance: 577nm
Sched. Duration: 1h 30m
Avg. Duration: 0h 00m (-130m)
Times Flown: 0
Recm'd Route: Not Available
Planned Altitude: 34,000ft
Origin Wx: EBLG 221450Z 29005KT 250V320 9999 FEW022 06/01 Q0995 NOSIG
Dest. Wx: LEBL 221500Z 29008KT 9999 FEW052 14/03 Q0999
Notes:

Financial History
Total Freight: 0lbs
Average Load: 0lbs/flt
Fuel Used: 0lbs
Avg. Fuel Used: 0lbs/flt
Fuel Expense: $0
Avg. Fuel Expense: $0
Avg. Fuel Cost: $0/lbs
Total Gross Income: $0
Pilot Pay: $0
Total Expenses: $0
Total Revenue: $0
Average Revenue: $0